Wednesday, May 04, 2016
06:03 UTC
  |  Log In   |  Register Free
Airport Search:

Oroville Municipal Airport
(KOVE)

Oroville Municipal Airport Diagram
No Airport Diagram Available

FAA data valid effective Mar 31 2016 - May 26 2016 (unless otherwise noted).

 
 
 
 
 
 
 
 
 
 
 
 
 
 
Current Aviation Weather for KOVE

Weather Summary


The most recent METAR observation for OVE was updated at: 12:53 UTC
METAR for KOVE is not available. Closest METAR is for KCIC
KOVE  (most recent observation was updatred at 40:55 UTC)
040553Z AUTO 00000KT 10SM CLR 19/13 A2988 RMK AO2 SLP118 T01940128 10272 20189 58000

KCIC  (21.5 nm SE)   (most recent observation was updated at 40:55 UTC)
040555Z AUTO 00000KT 10SM CLR 20/10 A2989 RMK AO1

KBAB  (22.8 nm NW)   (most recent observation was updated at 40:55 UTC)
040558Z AUTO 00000KT 10SM SCT200 SCT230 20/12 A2984 RMK AO2 SLP107 T02000119 10275 20181 58001 $

TAF for KOVE is not available.
KBAB  (22.8 nm NW)   (most recent observation was updatred at 40:30 UTC)
040305Z 0403/0509 VRB06KT 9999 SCT150 BKN210 QNH2979INS BECMG 0412/0413 17009KT 9999 -SHRA SCT080 BKN100 QNH2978INS BECMG 0420/0421 21012KT 8000 -SHRA VCTS SCT060CB BKN120 QNH2974INS TEMPO 0424/0503 VRB20G30KT -TSRA BECMG 0504/0505 16012G18KT 9999 NSW SCT120 SCT220 QNH2982INS TX27/0422Z TN14/0412Z


GlobalAir.com is loading additional information.
 Current Weather at OVE
67.0 F° (19.4 C°)

Northeast winds at 3.5 mph
Pressure:
29.88 in
Humidity:
66%
Wind:
Northeast at 3.5 mph
Dew Point:
55.0 F° (12.8 C°)
Visibility:
10.00 mi
OVE NOAA Radar




Find All Airport Services Find A Hotel Find A Rental Car Find A Golf Course Find A Restaurant $100 Hamburger



Airport Weather Forecast for KOVE

Translated METAR for KOVE (0553 UTC)
METAR:
KOVE 040553Z AUTO 00000KT 10SM CLR 19/13 A2988 RMK AO2 SLP118 T01940128 10272 20189 58000
Conditions at:
KOVE (Oroville Muni, CA) observed 0553 UTC 04 May 2016
Temperature:
19°C (66.2°F)
Dewpoint:
13°C (55.4°F) [RH = 68.2]
Pressure:
29.88 inches Hg (1011.9 mb)
pressure at sea level is 118 in Hg
Winds:
from the N (000 degrees) at 0 mph (0 knots: 0 m/s)
Visibility:
10 mile(s)
Ceiling:
at least 12,000 feet AGL
Clouds:
Clear below 12,000 feet AGL
Remarks:
site is un-manned
site is automated and HAS a precipitation sensor

Translated TAF for KBAB (Beale Afb, CA) (0305 UTC)
TAF text:
KBAB 040305Z 0403/0509 VRB06KT 9999 SCT150 BKN210 QNH2979INS BECMG 0412/0413 17009KT 9999 -SHRA SCT080 BKN100 QNH2978INS BECMG 0420/0421 21012KT 8000 -SHRA VCTS SCT060CB BKN120 QNH2974INS
Forecast period:
Wednesday May 04 2016 03:00 UTC - Thursday May 05 2016 09:00 UTC
Forecast type:
FROM: standard forecast or significant change
Winds:
from the SSW (210 degrees) at 13.8 mph (12 knots: 6.2 m/s)
Visibility:
Ceiling:
21,000 feet AGL
10,000 feet AGL
12,000 feet AGL
Clouds:
Scattered Clouds at 15,000 feet AGL
Broken Cloud Cover at 21,000 feet AGL
Scattered Clouds at 8,000 feet AGL
Broken Cloud Cover at 10,000 feet AGL
Broken Cloud Cover at 12,000 feet AGL
Weather:
Light Shower(s) Rain
TAF text:
0424/0503 VRB20G30KT -TSRA BECMG 0504/0505 16012G18KT 9999 NSW SCT120 SCT220 QNH2982INS TX27/0422Z TN14/0412Z
Forecast period:
Thursday May 05 2016 24:00 UTC - Friday May 06 2016 03:00 UTC
Forecast type:
FROM: standard forecast or significant change
Winds:
from the SSE (160 degrees) at 13.8 mph (12 knots: 6.2 m/s)
gusting to 20.7 mph (18 knots: 9.3 m/s)
Visibility:
Ceiling:
at least 12,000 feet AGL
Clouds:
Scattered Clouds at 12,000 feet AGL
Scattered Clouds at 22,000 feet AGL
Weather:
Light Thunderstorm Rain
FBO's on the Field
FBO Company Facility Photos Services Transportation Aviation Fuel Prices: Prices include tax
Catering Weather Repair Courtesy Rental Type 100LL JetA JetA+ MOGAS 8087
 
Table Mountain Aviation

This FBO has not yet been rated
FS:Epic
Last Updated: Apr-22
Login to update fuel prices
SS:
Contact Table Mountain AviationMore FBO Information
 
Add another FBO Facility Photos Catering Weather Repair Courtesy Rental Type 100LL JetA JetA+ MOGAS 8087
Services Transportation Aviation Fuel Prices: Prices include tax


model-print
model-print
model-print
model-print